sensor_id;sensor_type;location;lat;lon;timestamp;temperature;humidity
7496;DHT22;3789;47.064;15.482;2023-07-31T00:01:10;17.40;99.90
7496;DHT22;3789;47.064;15.482;2023-07-31T00:03:41;17.30;99.90
7496;DHT22;3789;47.064;15.482;2023-07-31T00:06:31;17.20;99.90
7496;DHT22;3789;47.064;15.482;2023-07-31T00:09:09;17.10;99.90
7496;DHT22;3789;47.064;15.482;2023-07-31T00:11:39;17.00;99.90
7496;DHT22;3789;47.064;15.482;2023-07-31T00:14:09;16.80;99.90
7496;DHT22;3789;47.064;15.482;2023-07-31T00:16:37;16.80;99.90
7496;DHT22;3789;47.064;15.482;2023-07-31T00:19:07;16.90;99.90
7496;DHT22;3789;47.064;15.482;2023-07-31T00:21:36;16.90;99.90
7496;DHT22;3789;47.064;15.482;2023-07-31T00:24:07;16.90;99.90
7496;DHT22;3789;47.064;15.482;2023-07-31T00:26:38;16.90;99.90
7496;DHT22;3789;47.064;15.482;2023-07-31T00:29:12;17.00;99.90
7496;DHT22;3789;47.064;15.482;2023-07-31T00:31:39;17.00;99.90
7496;DHT22;3789;47.064;15.482;2023-07-31T00:34:09;17.10;99.90
7496;DHT22;3789;47.064;15.482;2023-07-31T00:36:41;17.30;99.90
7496;DHT22;3789;47.064;15.482;2023-07-31T00:39:12;17.30;99.90
7496;DHT22;3789;47.064;15.482;2023-07-31T00:41:41;17.30;99.90
7496;DHT22;3789;47.064;15.482;2023-07-31T00:44:12;17.50;99.90
7496;DHT22;3789;47.064;15.482;2023-07-31T00:46:41;17.40;99.90
7496;DHT22;3789;47.064;15.482;2023-07-31T00:49:12;17.30;99.90
7496;DHT22;3789;47.064;15.482;2023-07-31T00:51:41;17.00;99.90
7496;DHT22;3789;47.064;15.482;2023-07-31T00:54:19;16.90;99.90
7496;DHT22;3789;47.064;15.482;2023-07-31T00:56:50;16.80;99.90
7496;DHT22;3789;47.064;15.482;2023-07-31T00:59:23;16.80;99.90
7496;DHT22;3789;47.064;15.482;2023-07-31T01:02:00;16.70;99.90
7496;DHT22;3789;47.064;15.482;2023-07-31T01:04:35;16.80;99.90
7496;DHT22;3789;47.064;15.482;2023-07-31T01:07:35;16.80;99.90
7496;DHT22;3789;47.064;15.482;2023-07-31T01:10:50;17.00;99.90
7496;DHT22;3789;47.064;15.482;2023-07-31T01:13:22;17.00;99.90
7496;DHT22;3789;47.064;15.482;2023-07-31T01:15:54;17.00;99.90
7496;DHT22;3789;47.064;15.482;2023-07-31T01:18:30;16.80;99.90
7496;DHT22;3789;47.064;15.482;2023-07-31T01:28:12;16.90;99.90
7496;DHT22;3789;47.064;15.482;2023-07-31T01:30:54;16.80;99.90
7496;DHT22;3789;47.064;15.482;2023-07-31T01:33:24;16.70;99.90
7496;DHT22;3789;47.064;15.482;2023-07-31T01:35:57;16.60;99.90
7496;DHT22;3789;47.064;15.482;2023-07-31T01:38:33;16.50;99.90
7496;DHT22;3789;47.064;15.482;2023-07-31T01:41:12;16.40;99.90
7496;DHT22;3789;47.064;15.482;2023-07-31T01:43:51;16.30;99.90
7496;DHT22;3789;47.064;15.482;2023-07-31T01:46:21;16.40;99.90
7496;DHT22;3789;47.064;15.482;2023-07-31T01:48:54;16.50;99.90
7496;DHT22;3789;47.064;15.482;2023-07-31T01:51:24;16.40;99.90
7496;DHT22;3789;47.064;15.482;2023-07-31T01:53:54;16.40;99.90
7496;DHT22;3789;47.064;15.482;2023-07-31T01:56:32;16.50;99.90
7496;DHT22;3789;47.064;15.482;2023-07-31T01:59:03;16.50;99.90
7496;DHT22;3789;47.064;15.482;2023-07-31T02:01:37;16.40;99.90
7496;DHT22;3789;47.064;15.482;2023-07-31T02:04:09;16.40;99.90
7496;DHT22;3789;47.064;15.482;2023-07-31T02:06:39;16.50;99.90
7496;DHT22;3789;47.064;15.482;2023-07-31T02:09:10;16.40;99.90
7496;DHT22;3789;47.064;15.482;2023-07-31T02:11:39;16.30;99.90
7496;DHT22;3789;47.064;15.482;2023-07-31T02:14:16;16.20;99.90
7496;DHT22;3789;47.064;15.482;2023-07-31T02:16:45;16.30;99.90
7496;DHT22;3789;47.064;15.482;2023-07-31T02:19:14;16.30;99.90
7496;DHT22;3789;47.064;15.482;2023-07-31T02:21:44;16.40;99.90
7496;DHT22;3789;47.064;15.482;2023-07-31T02:24:15;16.40;99.90
7496;DHT22;3789;47.064;15.482;2023-07-31T02:26:45;16.40;99.90
7496;DHT22;3789;47.064;15.482;2023-07-31T02:29:13;16.30;99.90
7496;DHT22;3789;47.064;15.482;2023-07-31T02:31:52;16.30;99.90
7496;DHT22;3789;47.064;15.482;2023-07-31T02:34:20;16.30;99.90
7496;DHT22;3789;47.064;15.482;2023-07-31T02:36:51;16.20;99.90
7496;DHT22;3789;47.064;15.482;2023-07-31T02:39:21;16.20;99.90
7496;DHT22;3789;47.064;15.482;2023-07-31T02:41:52;16.20;99.90
7496;DHT22;3789;47.064;15.482;2023-07-31T02:44:29;16.20;99.90
7496;DHT22;3789;47.064;15.482;2023-07-31T02:46:57;16.20;99.90
7496;DHT22;3789;47.064;15.482;2023-07-31T02:49:28;16.20;99.90
7496;DHT22;3789;47.064;15.482;2023-07-31T02:51:58;16.30;99.90
7496;DHT22;3789;47.064;15.482;2023-07-31T02:54:26;16.30;99.90
7496;DHT22;3789;47.064;15.482;2023-07-31T02:56:56;16.40;99.90
7496;DHT22;3789;47.064;15.482;2023-07-31T02:59:29;16.50;99.90
7496;DHT22;3789;47.064;15.482;2023-07-31T03:01:58;16.60;99.90
7496;DHT22;3789;47.064;15.482;2023-07-31T03:04:27;16.70;99.90
7496;DHT22;3789;47.064;15.482;2023-07-31T03:07:04;16.60;99.90
7496;DHT22;3789;47.064;15.482;2023-07-31T03:09:35;16.70;99.90
7496;DHT22;3789;47.064;15.482;2023-07-31T03:12:05;16.70;99.90
7496;DHT22;3789;47.064;15.482;2023-07-31T03:14:37;16.60;99.90
7496;DHT22;3789;47.064;15.482;2023-07-31T03:17:07;16.50;99.90
7496;DHT22;3789;47.064;15.482;2023-07-31T03:19:37;16.50;99.90
7496;DHT22;3789;47.064;15.482;2023-07-31T03:22:12;16.40;99.90
7496;DHT22;3789;47.064;15.482;2023-07-31T03:24:40;16.30;99.90
7496;DHT22;3789;47.064;15.482;2023-07-31T03:27:09;16.30;99.90
7496;DHT22;3789;47.064;15.482;2023-07-31T03:29:39;16.30;99.90
7496;DHT22;3789;47.064;15.482;2023-07-31T03:32:18;16.30;99.90
7496;DHT22;3789;47.064;15.482;2023-07-31T03:34:46;16.30;99.90
7496;DHT22;3789;47.064;15.482;2023-07-31T03:37:16;16.30;99.90
7496;DHT22;3789;47.064;15.482;2023-07-31T03:39:43;16.30;99.90
7496;DHT22;3789;47.064;15.482;2023-07-31T03:42:15;16.30;99.90
7496;DHT22;3789;47.064;15.482;2023-07-31T03:44:45;16.20;99.90
7496;DHT22;3789;47.064;15.482;2023-07-31T03:47:15;16.00;99.90
7496;DHT22;3789;47.064;15.482;2023-07-31T03:49:53;16.00;99.90
7496;DHT22;3789;47.064;15.482;2023-07-31T03:52:27;16.10;99.90
7496;DHT22;3789;47.064;15.482;2023-07-31T03:54:56;16.20;99.90
7496;DHT22;3789;47.064;15.482;2023-07-31T03:57:26;16.10;99.90
7496;DHT22;3789;47.064;15.482;2023-07-31T03:59:54;15.90;99.90
7496;DHT22;3789;47.064;15.482;2023-07-31T04:02:26;15.90;99.90
7496;DHT22;3789;47.064;15.482;2023-07-31T04:05:02;15.90;99.90
7496;DHT22;3789;47.064;15.482;2023-07-31T04:07:34;16.00;99.90
7496;DHT22;3789;47.064;15.482;2023-07-31T04:10:03;15.90;99.90
7496;DHT22;3789;47.064;15.482;2023-07-31T04:12:39;15.90;99.90
7496;DHT22;3789;47.064;15.482;2023-07-31T04:15:09;16.20;99.90
7496;DHT22;3789;47.064;15.482;2023-07-31T04:17:39;16.60;99.90
7496;DHT22;3789;47.064;15.482;2023-07-31T04:20:08;17.10;99.90
7496;DHT22;3789;47.064;15.482;2023-07-31T04:22:37;17.50;99.90
7496;DHT22;3789;47.064;15.482;2023-07-31T04:25:16;18.00;99.90
7496;DHT22;3789;47.064;15.482;2023-07-31T04:27:54;18.00;99.90
7496;DHT22;3789;47.064;15.482;2023-07-31T04:30:24;18.00;99.90
7496;DHT22;3789;47.064;15.482;2023-07-31T04:32:54;17.70;99.90
7496;DHT22;3789;47.064;15.482;2023-07-31T04:35:33;17.70;99.90
7496;DHT22;3789;47.064;15.482;2023-07-31T04:38:02;17.80;99.90
7496;DHT22;3789;47.064;15.482;2023-07-31T04:40:31;17.90;99.90
7496;DHT22;3789;47.064;15.482;2023-07-31T04:43:04;17.90;99.90
7496;DHT22;3789;47.064;15.482;2023-07-31T04:45:32;17.80;99.90
7496;DHT22;3789;47.064;15.482;2023-07-31T04:48:04;17.80;99.90
7496;DHT22;3789;47.064;15.482;2023-07-31T04:50:32;17.90;99.90
7496;DHT22;3789;47.064;15.482;2023-07-31T04:53:01;17.70;99.90
7496;DHT22;3789;47.064;15.482;2023-07-31T04:55:32;17.50;99.90
7496;DHT22;3789;47.064;15.482;2023-07-31T04:58:08;17.50;99.90
7496;DHT22;3789;47.064;15.482;2023-07-31T05:00:50;17.40;99.90
7496;DHT22;3789;47.064;15.482;2023-07-31T05:03:21;17.50;99.90
7496;DHT22;3789;47.064;15.482;2023-07-31T05:05:56;17.70;99.90
7496;DHT22;3789;47.064;15.482;2023-07-31T05:08:33;18.00;99.90
7496;DHT22;3789;47.064;15.482;2023-07-31T05:11:03;18.40;99.90
7496;DHT22;3789;47.064;15.482;2023-07-31T05:13:33;18.70;99.90
7496;DHT22;3789;47.064;15.482;2023-07-31T05:16:04;19.00;99.90
7496;DHT22;3789;47.064;15.482;2023-07-31T05:18:34;19.00;99.90
7496;DHT22;3789;47.064;15.482;2023-07-31T05:21:06;19.10;99.90
7496;DHT22;3789;47.064;15.482;2023-07-31T05:23:36;19.10;99.90
7496;DHT22;3789;47.064;15.482;2023-07-31T05:26:09;18.90;99.90
7496;DHT22;3789;47.064;15.482;2023-07-31T05:28:49;19.00;99.90
7496;DHT22;3789;47.064;15.482;2023-07-31T05:31:18;19.20;99.90
7496;DHT22;3789;47.064;15.482;2023-07-31T05:33:49;19.20;99.90
7496;DHT22;3789;47.064;15.482;2023-07-31T05:36:20;19.30;99.90
7496;DHT22;3789;47.064;15.482;2023-07-31T05:38:52;19.40;99.90
7496;DHT22;3789;47.064;15.482;2023-07-31T05:41:24;19.50;99.90
7496;DHT22;3789;47.064;15.482;2023-07-31T05:43:55;19.70;99.90
7496;DHT22;3789;47.064;15.482;2023-07-31T05:46:33;19.90;99.90
7496;DHT22;3789;47.064;15.482;2023-07-31T05:49:02;20.00;99.90
7496;DHT22;3789;47.064;15.482;2023-07-31T05:51:32;20.20;99.90
7496;DHT22;3789;47.064;15.482;2023-07-31T05:54:00;20.40;99.90
7496;DHT22;3789;47.064;15.482;2023-07-31T05:56:29;20.50;99.90
7496;DHT22;3789;47.064;15.482;2023-07-31T05:58:59;20.50;99.90
7496;DHT22;3789;47.064;15.482;2023-07-31T06:01:35;20.60;99.90
7496;DHT22;3789;47.064;15.482;2023-07-31T06:04:06;20.60;99.90
7496;DHT22;3789;47.064;15.482;2023-07-31T06:06:49;20.70;99.90
7496;DHT22;3789;47.064;15.482;2023-07-31T06:09:29;20.90;99.90
7496;DHT22;3789;47.064;15.482;2023-07-31T06:12:08;21.20;99.90
7496;DHT22;3789;47.064;15.482;2023-07-31T06:14:41;21.30;99.90
7496;DHT22;3789;47.064;15.482;2023-07-31T06:17:09;21.30;99.90
7496;DHT22;3789;47.064;15.482;2023-07-31T06:19:37;21.20;99.90
7496;DHT22;3789;47.064;15.482;2023-07-31T06:22:06;21.30;99.90
7496;DHT22;3789;47.064;15.482;2023-07-31T06:24:36;21.60;99.90
7496;DHT22;3789;47.064;15.482;2023-07-31T06:27:16;21.80;99.90
7496;DHT22;3789;47.064;15.482;2023-07-31T06:29:53;21.70;99.90
7496;DHT22;3789;47.064;15.482;2023-07-31T06:32:23;21.80;99.90
7496;DHT22;3789;47.064;15.482;2023-07-31T06:34:53;22.00;99.90
7496;DHT22;3789;47.064;15.482;2023-07-31T06:37:28;22.10;99.90
7496;DHT22;3789;47.064;15.482;2023-07-31T06:39:57;22.30;99.90
7496;DHT22;3789;47.064;15.482;2023-07-31T06:42:27;22.40;99.90
7496;DHT22;3789;47.064;15.482;2023-07-31T06:44:58;22.40;99.90
7496;DHT22;3789;47.064;15.482;2023-07-31T06:47:33;22.40;99.90
7496;DHT22;3789;47.064;15.482;2023-07-31T06:50:03;22.30;99.90
7496;DHT22;3789;47.064;15.482;2023-07-31T06:52:34;22.60;99.90
7496;DHT22;3789;47.064;15.482;2023-07-31T06:55:17;22.70;99.90
7496;DHT22;3789;47.064;15.482;2023-07-31T06:58:01;22.80;99.90
7496;DHT22;3789;47.064;15.482;2023-07-31T07:00:31;23.00;99.90
7496;DHT22;3789;47.064;15.482;2023-07-31T07:03:01;23.30;99.90
7496;DHT22;3789;47.064;15.482;2023-07-31T07:05:32;23.40;99.90
7496;DHT22;3789;47.064;15.482;2023-07-31T07:08:02;23.50;99.90
7496;DHT22;3789;47.064;15.482;2023-07-31T07:10:41;23.50;99.90
7496;DHT22;3789;47.064;15.482;2023-07-31T07:13:23;23.70;99.90
7496;DHT22;3789;47.064;15.482;2023-07-31T07:15:52;23.80;99.90
7496;DHT22;3789;47.064;15.482;2023-07-31T07:18:22;24.00;99.90
7496;DHT22;3789;47.064;15.482;2023-07-31T07:20:51;24.20;99.90
7496;DHT22;3789;47.064;15.482;2023-07-31T07:23:21;24.30;99.90
7496;DHT22;3789;47.064;15.482;2023-07-31T07:25:53;24.30;99.90
7496;DHT22;3789;47.064;15.482;2023-07-31T07:28:25;24.60;99.90
7496;DHT22;3789;47.064;15.482;2023-07-31T07:30:55;24.50;99.90
7496;DHT22;3789;47.064;15.482;2023-07-31T07:33:24;24.60;99.90
7496;DHT22;3789;47.064;15.482;2023-07-31T07:35:53;24.60;99.90
7496;DHT22;3789;47.064;15.482;2023-07-31T07:38:24;24.70;99.90
7496;DHT22;3789;47.064;15.482;2023-07-31T07:40:56;24.60;99.90
7496;DHT22;3789;47.064;15.482;2023-07-31T07:43:25;24.50;99.90
7496;DHT22;3789;47.064;15.482;2023-07-31T07:45:54;24.10;99.90
7496;DHT22;3789;47.064;15.482;2023-07-31T07:48:22;23.90;99.90
7496;DHT22;3789;47.064;15.482;2023-07-31T07:50:51;23.90;99.90
7496;DHT22;3789;47.064;15.482;2023-07-31T07:53:21;24.10;99.90
7496;DHT22;3789;47.064;15.482;2023-07-31T07:55:50;24.30;99.90
7496;DHT22;3789;47.064;15.482;2023-07-31T07:58:22;24.20;99.90
7496;DHT22;3789;47.064;15.482;2023-07-31T08:01:00;24.40;99.90
7496;DHT22;3789;47.064;15.482;2023-07-31T08:03:37;24.60;99.90
7496;DHT22;3789;47.064;15.482;2023-07-31T08:06:07;24.60;99.90
7496;DHT22;3789;47.064;15.482;2023-07-31T08:08:38;24.80;99.90
7496;DHT22;3789;47.064;15.482;2023-07-31T08:11:09;25.00;99.90
7496;DHT22;3789;47.064;15.482;2023-07-31T08:13:38;24.90;99.90
7496;DHT22;3789;47.064;15.482;2023-07-31T08:16:10;24.90;99.90
7496;DHT22;3789;47.064;15.482;2023-07-31T08:18:38;25.00;99.90
7496;DHT22;3789;47.064;15.482;2023-07-31T08:21:15;25.00;99.90
7496;DHT22;3789;47.064;15.482;2023-07-31T08:23:47;25.10;99.90
7496;DHT22;3789;47.064;15.482;2023-07-31T08:26:20;25.20;99.90
7496;DHT22;3789;47.064;15.482;2023-07-31T08:28:50;24.40;99.90
7496;DHT22;3789;47.064;15.482;2023-07-31T08:31:20;24.40;99.90
7496;DHT22;3789;47.064;15.482;2023-07-31T08:33:48;24.70;99.90
7496;DHT22;3789;47.064;15.482;2023-07-31T08:36:19;24.80;99.90
7496;DHT22;3789;47.064;15.482;2023-07-31T08:38:48;25.10;99.90
7496;DHT22;3789;47.064;15.482;2023-07-31T08:41:20;25.30;99.90
7496;DHT22;3789;47.064;15.482;2023-07-31T08:43:48;25.10;99.90
7496;DHT22;3789;47.064;15.482;2023-07-31T08:46:26;24.60;99.90
7496;DHT22;3789;47.064;15.482;2023-07-31T08:48:59;24.80;99.90
7496;DHT22;3789;47.064;15.482;2023-07-31T08:51:28;24.90;99.90
7496;DHT22;3789;47.064;15.482;2023-07-31T08:53:57;25.20;99.90
7496;DHT22;3789;47.064;15.482;2023-07-31T08:56:28;25.20;99.90
7496;DHT22;3789;47.064;15.482;2023-07-31T08:59:08;25.40;99.90
7496;DHT22;3789;47.064;15.482;2023-07-31T09:01:49;25.30;99.90
7496;DHT22;3789;47.064;15.482;2023-07-31T09:04:18;25.50;99.90
7496;DHT22;3789;47.064;15.482;2023-07-31T09:07:09;25.50;99.90
7496;DHT22;3789;47.064;15.482;2023-07-31T09:09:46;25.50;99.90
7496;DHT22;3789;47.064;15.482;2023-07-31T09:12:18;25.70;99.90
7496;DHT22;3789;47.064;15.482;2023-07-31T09:14:51;25.60;99.90
7496;DHT22;3789;47.064;15.482;2023-07-31T09:17:31;25.90;99.90
7496;DHT22;3789;47.064;15.482;2023-07-31T09:20:20;26.00;99.90
7496;DHT22;3789;47.064;15.482;2023-07-31T09:22:55;26.00;99.90
7496;DHT22;3789;47.064;15.482;2023-07-31T09:25:25;25.80;99.90
7496;DHT22;3789;47.064;15.482;2023-07-31T09:28:03;25.60;99.90
7496;DHT22;3789;47.064;15.482;2023-07-31T09:30:51;25.70;99.90
7496;DHT22;3789;47.064;15.482;2023-07-31T09:33:21;25.60;99.90
7496;DHT22;3789;47.064;15.482;2023-07-31T09:35:59;25.60;99.90
7496;DHT22;3789;47.064;15.482;2023-07-31T09:38:33;25.50;99.90
7496;DHT22;3789;47.064;15.482;2023-07-31T09:41:03;25.60;99.90
7496;DHT22;3789;47.064;15.482;2023-07-31T09:43:53;25.50;99.90
7496;DHT22;3789;47.064;15.482;2023-07-31T09:46:28;25.60;99.90
7496;DHT22;3789;47.064;15.482;2023-07-31T09:49:14;25.60;99.90
7496;DHT22;3789;47.064;15.482;2023-07-31T09:51:44;25.50;99.90
7496;DHT22;3789;47.064;15.482;2023-07-31T09:54:15;25.30;99.90
7496;DHT22;3789;47.064;15.482;2023-07-31T09:57:09;25.50;99.90
7496;DHT22;3789;47.064;15.482;2023-07-31T09:59:40;25.10;99.90
7496;DHT22;3789;47.064;15.482;2023-07-31T10:02:14;25.30;99.90
7496;DHT22;3789;47.064;15.482;2023-07-31T10:04:50;24.60;99.90
7496;DHT22;3789;47.064;15.482;2023-07-31T10:07:20;24.30;99.90
7496;DHT22;3789;47.064;15.482;2023-07-31T10:09:53;24.60;99.90
7496;DHT22;3789;47.064;15.482;2023-07-31T10:12:45;24.70;99.90
7496;DHT22;3789;47.064;15.482;2023-07-31T10:15:14;24.90;99.90
7496;DHT22;3789;47.064;15.482;2023-07-31T10:17:48;25.10;99.90
7496;DHT22;3789;47.064;15.482;2023-07-31T10:20:17;25.10;99.90
7496;DHT22;3789;47.064;15.482;2023-07-31T10:22:55;25.00;99.90
7496;DHT22;3789;47.064;15.482;2023-07-31T10:25:29;25.00;99.90
7496;DHT22;3789;47.064;15.482;2023-07-31T10:27:59;25.20;99.90
7496;DHT22;3789;47.064;15.482;2023-07-31T10:30:30;25.50;99.90
7496;DHT22;3789;47.064;15.482;2023-07-31T10:33:06;25.80;99.90
7496;DHT22;3789;47.064;15.482;2023-07-31T10:35:34;26.00;99.90
7496;DHT22;3789;47.064;15.482;2023-07-31T10:38:13;26.00;99.90
7496;DHT22;3789;47.064;15.482;2023-07-31T10:40:43;25.60;99.90
7496;DHT22;3789;47.064;15.482;2023-07-31T10:43:29;25.70;99.90
7496;DHT22;3789;47.064;15.482;2023-07-31T10:45:58;25.60;99.90
7496;DHT22;3789;47.064;15.482;2023-07-31T10:48:34;25.50;99.90
7496;DHT22;3789;47.064;15.482;2023-07-31T10:51:12;25.70;99.90
7496;DHT22;3789;47.064;15.482;2023-07-31T10:53:43;25.70;99.90
7496;DHT22;3789;47.064;15.482;2023-07-31T10:56:25;25.80;99.90
7496;DHT22;3789;47.064;15.482;2023-07-31T10:59:04;25.80;99.90
7496;DHT22;3789;47.064;15.482;2023-07-31T11:01:53;25.70;99.90
7496;DHT22;3789;47.064;15.482;2023-07-31T11:04:30;25.20;99.90
7496;DHT22;3789;47.064;15.482;2023-07-31T11:07:02;25.30;99.90
7496;DHT22;3789;47.064;15.482;2023-07-31T11:09:33;25.50;99.90
7496;DHT22;3789;47.064;15.482;2023-07-31T11:12:03;25.60;99.90
7496;DHT22;3789;47.064;15.482;2023-07-31T11:14:34;25.80;99.90
7496;DHT22;3789;47.064;15.482;2023-07-31T11:17:07;26.10;99.90
7496;DHT22;3789;47.064;15.482;2023-07-31T11:19:39;26.20;99.90
7496;DHT22;3789;47.064;15.482;2023-07-31T11:22:08;25.90;99.90
7496;DHT22;3789;47.064;15.482;2023-07-31T11:24:38;25.70;99.90
7496;DHT22;3789;47.064;15.482;2023-07-31T11:27:08;25.20;99.90
7496;DHT22;3789;47.064;15.482;2023-07-31T11:29:45;25.40;99.90
7496;DHT22;3789;47.064;15.482;2023-07-31T11:32:17;25.50;99.90
7496;DHT22;3789;47.064;15.482;2023-07-31T11:34:55;25.80;99.90
7496;DHT22;3789;47.064;15.482;2023-07-31T11:37:44;26.30;99.90
7496;DHT22;3789;47.064;15.482;2023-07-31T11:40:22;26.30;99.90
7496;DHT22;3789;47.064;15.482;2023-07-31T11:43:04;26.50;99.90
7496;DHT22;3789;47.064;15.482;2023-07-31T11:45:34;26.40;99.90
7496;DHT22;3789;47.064;15.482;2023-07-31T11:48:03;26.30;99.90
7496;DHT22;3789;47.064;15.482;2023-07-31T11:50:39;26.20;99.90
7496;DHT22;3789;47.064;15.482;2023-07-31T11:53:09;26.00;99.90
7496;DHT22;3789;47.064;15.482;2023-07-31T11:55:38;25.90;99.90
7496;DHT22;3789;47.064;15.482;2023-07-31T11:58:07;25.90;99.90
7496;DHT22;3789;47.064;15.482;2023-07-31T12:00:39;25.60;99.90
7496;DHT22;3789;47.064;15.482;2023-07-31T12:03:08;25.50;99.90
7496;DHT22;3789;47.064;15.482;2023-07-31T12:05:39;25.60;99.90
7496;DHT22;3789;47.064;15.482;2023-07-31T12:08:28;26.00;99.90
7496;DHT22;3789;47.064;15.482;2023-07-31T12:11:09;26.20;99.90
7496;DHT22;3789;47.064;15.482;2023-07-31T12:13:40;26.20;99.90
7496;DHT22;3789;47.064;15.482;2023-07-31T12:16:14;25.70;99.90
7496;DHT22;3789;47.064;15.482;2023-07-31T12:18:43;25.70;99.90
7496;DHT22;3789;47.064;15.482;2023-07-31T12:21:12;25.60;99.90
7496;DHT22;3789;47.064;15.482;2023-07-31T12:23:43;25.40;99.90
7496;DHT22;3789;47.064;15.482;2023-07-31T12:26:17;25.40;99.90
7496;DHT22;3789;47.064;15.482;2023-07-31T12:28:54;25.30;99.90
7496;DHT22;3789;47.064;15.482;2023-07-31T12:31:30;25.40;99.90
7496;DHT22;3789;47.064;15.482;2023-07-31T12:34:18;25.20;99.90
7496;DHT22;3789;47.064;15.482;2023-07-31T12:36:54;25.40;99.90
7496;DHT22;3789;47.064;15.482;2023-07-31T12:39:23;25.10;99.90
7496;DHT22;3789;47.064;15.482;2023-07-31T12:42:01;24.60;99.90
7496;DHT22;3789;47.064;15.482;2023-07-31T12:44:32;24.40;99.90
7496;DHT22;3789;47.064;15.482;2023-07-31T12:47:05;24.40;99.90
7496;DHT22;3789;47.064;15.482;2023-07-31T12:49:38;24.60;99.90
7496;DHT22;3789;47.064;15.482;2023-07-31T12:52:10;24.80;99.90
7496;DHT22;3789;47.064;15.482;2023-07-31T12:54:38;24.60;99.90
7496;DHT22;3789;47.064;15.482;2023-07-31T12:57:14;24.20;99.90
7496;DHT22;3789;47.064;15.482;2023-07-31T12:59:43;23.90;99.90
7496;DHT22;3789;47.064;15.482;2023-07-31T13:02:12;24.10;99.90
7496;DHT22;3789;47.064;15.482;2023-07-31T13:04:45;24.20;99.90
7496;DHT22;3789;47.064;15.482;2023-07-31T13:07:16;24.10;99.90
7496;DHT22;3789;47.064;15.482;2023-07-31T13:09:51;24.10;99.90
7496;DHT22;3789;47.064;15.482;2023-07-31T13:12:27;23.90;99.90
7496;DHT22;3789;47.064;15.482;2023-07-31T13:14:58;23.90;99.90
7496;DHT22;3789;47.064;15.482;2023-07-31T13:17:26;23.90;99.90
7496;DHT22;3789;47.064;15.482;2023-07-31T13:19:57;24.20;99.90
7496;DHT22;3789;47.064;15.482;2023-07-31T13:22:31;24.40;99.90
7496;DHT22;3789;47.064;15.482;2023-07-31T13:25:00;24.30;99.90
7496;DHT22;3789;47.064;15.482;2023-07-31T13:27:41;24.30;99.90
7496;DHT22;3789;47.064;15.482;2023-07-31T13:30:17;24.50;99.90
7496;DHT22;3789;47.064;15.482;2023-07-31T13:32:44;24.50;99.90
7496;DHT22;3789;47.064;15.482;2023-07-31T13:35:13;24.20;99.90
7496;DHT22;3789;47.064;15.482;2023-07-31T13:37:41;24.20;99.90
7496;DHT22;3789;47.064;15.482;2023-07-31T13:40:20;24.20;99.90
7496;DHT22;3789;47.064;15.482;2023-07-31T13:42:51;24.30;99.90
7496;DHT22;3789;47.064;15.482;2023-07-31T13:45:24;24.40;99.90
7496;DHT22;3789;47.064;15.482;2023-07-31T13:47:53;24.60;99.90
7496;DHT22;3789;47.064;15.482;2023-07-31T13:50:22;24.70;99.90
7496;DHT22;3789;47.064;15.482;2023-07-31T13:52:53;24.70;99.90
7496;DHT22;3789;47.064;15.482;2023-07-31T13:55:24;24.70;99.90
7496;DHT22;3789;47.064;15.482;2023-07-31T13:57:52;24.90;99.90
7496;DHT22;3789;47.064;15.482;2023-07-31T14:00:32;25.20;99.90
7496;DHT22;3789;47.064;15.482;2023-07-31T14:03:00;25.50;99.90
7496;DHT22;3789;47.064;15.482;2023-07-31T14:05:41;25.70;99.90
7496;DHT22;3789;47.064;15.482;2023-07-31T14:08:11;25.70;99.90
7496;DHT22;3789;47.064;15.482;2023-07-31T14:10:39;25.70;99.90
7496;DHT22;3789;47.064;15.482;2023-07-31T14:13:07;25.00;99.90
7496;DHT22;3789;47.064;15.482;2023-07-31T14:15:46;24.90;99.90
7496;DHT22;3789;47.064;15.482;2023-07-31T14:18:15;25.20;99.90
7496;DHT22;3789;47.064;15.482;2023-07-31T14:21:13;25.30;99.90
7496;DHT22;3789;47.064;15.482;2023-07-31T14:23:42;25.50;99.90
7496;DHT22;3789;47.064;15.482;2023-07-31T14:26:13;25.50;99.90
7496;DHT22;3789;47.064;15.482;2023-07-31T14:28:46;25.50;99.90
7496;DHT22;3789;47.064;15.482;2023-07-31T14:31:18;25.60;99.90
7496;DHT22;3789;47.064;15.482;2023-07-31T14:33:50;25.60;99.90
7496;DHT22;3789;47.064;15.482;2023-07-31T14:36:27;25.60;99.90
7496;DHT22;3789;47.064;15.482;2023-07-31T14:38:57;25.70;99.90
7496;DHT22;3789;47.064;15.482;2023-07-31T14:41:26;25.60;99.90
7496;DHT22;3789;47.064;15.482;2023-07-31T14:43:54;25.40;99.90
7496;DHT22;3789;47.064;15.482;2023-07-31T14:46:26;25.20;99.90
7496;DHT22;3789;47.064;15.482;2023-07-31T14:48:58;25.10;99.90
7496;DHT22;3789;47.064;15.482;2023-07-31T14:51:31;25.20;99.90
7496;DHT22;3789;47.064;15.482;2023-07-31T14:53:59;25.30;99.90
7496;DHT22;3789;47.064;15.482;2023-07-31T14:56:29;24.90;99.90
7496;DHT22;3789;47.064;15.482;2023-07-31T14:59:01;24.70;99.90
7496;DHT22;3789;47.064;15.482;2023-07-31T15:01:32;24.70;99.90
7496;DHT22;3789;47.064;15.482;2023-07-31T15:04:01;24.50;99.90
7496;DHT22;3789;47.064;15.482;2023-07-31T15:06:33;24.40;99.90
7496;DHT22;3789;47.064;15.482;2023-07-31T15:09:01;24.60;99.90
7496;DHT22;3789;47.064;15.482;2023-07-31T15:11:32;24.90;99.90
7496;DHT22;3789;47.064;15.482;2023-07-31T15:14:03;25.00;99.90
7496;DHT22;3789;47.064;15.482;2023-07-31T15:16:45;24.80;99.90
7496;DHT22;3789;47.064;15.482;2023-07-31T15:19:15;24.70;99.90
7496;DHT22;3789;47.064;15.482;2023-07-31T15:21:52;24.60;99.90
7496;DHT22;3789;47.064;15.482;2023-07-31T15:24:21;24.70;99.90
7496;DHT22;3789;47.064;15.482;2023-07-31T15:26:51;24.80;99.90
7496;DHT22;3789;47.064;15.482;2023-07-31T15:29:24;24.60;99.90
7496;DHT22;3789;47.064;15.482;2023-07-31T15:31:59;24.50;99.90
7496;DHT22;3789;47.064;15.482;2023-07-31T15:34:34;24.40;99.90
7496;DHT22;3789;47.064;15.482;2023-07-31T15:37:05;24.50;99.90
7496;DHT22;3789;47.064;15.482;2023-07-31T15:39:36;24.60;99.90
7496;DHT22;3789;47.064;15.482;2023-07-31T15:42:07;24.90;99.90
7496;DHT22;3789;47.064;15.482;2023-07-31T15:44:40;25.30;99.90
7496;DHT22;3789;47.064;15.482;2023-07-31T15:47:13;25.50;99.90
7496;DHT22;3789;47.064;15.482;2023-07-31T15:49:44;25.80;99.90
7496;DHT22;3789;47.064;15.482;2023-07-31T15:52:15;25.40;99.90
7496;DHT22;3789;47.064;15.482;2023-07-31T15:54:45;25.10;99.90
7496;DHT22;3789;47.064;15.482;2023-07-31T15:57:15;25.00;99.90
7496;DHT22;3789;47.064;15.482;2023-07-31T15:59:44;24.70;99.90
7496;DHT22;3789;47.064;15.482;2023-07-31T16:02:15;24.60;99.90
7496;DHT22;3789;47.064;15.482;2023-07-31T16:04:45;24.50;99.90
7496;DHT22;3789;47.064;15.482;2023-07-31T16:07:16;24.20;99.90
7496;DHT22;3789;47.064;15.482;2023-07-31T16:09:48;24.10;99.90
7496;DHT22;3789;47.064;15.482;2023-07-31T16:12:26;24.10;99.90
7496;DHT22;3789;47.064;15.482;2023-07-31T16:14:56;24.10;99.90
7496;DHT22;3789;47.064;15.482;2023-07-31T16:17:28;24.10;99.90
7496;DHT22;3789;47.064;15.482;2023-07-31T16:19:57;24.00;99.90
7496;DHT22;3789;47.064;15.482;2023-07-31T16:22:28;24.00;99.90
7496;DHT22;3789;47.064;15.482;2023-07-31T16:25:05;24.00;99.90
7496;DHT22;3789;47.064;15.482;2023-07-31T16:27:39;24.10;99.90